Kearney, NE (68845)

04:44 PM CDT del 02 Settembre 2015 (GMT -0500)
Regency | | Change Station
CLOSE
Current Station
Stazione meteo personale
Location: Kearney, NE
Altitudine: 2224 ft
Stazioni meteo nelle vicinanze

Alt. 2224 ft 40.72 °N, 99.08 °W | Updated 13 seconds ago

Sereno
Sereno
91.5 °F
Sembra 94 °F
N
0.0
Vento Variabile Vento da SE
Gusts 0.0 mph

Oggi
Massima -- | Minima -- °F
--% Possibilità di precip.
Ieri
Massima -- | Minima -- °F
Precip. -- in
7:04 AM 8:07 PM
Gobba a levante, 77% visible
Pressione 29.84 in
Visibilità 10.0 miglia
Nuvole Sereno
Indice di calore 94 °F
Punto di rugiada 66 °F
Umidità 43%
Piovosità 0.00 in
Spessore del manto nevoso Non disponibile.
Raggi UV 5 fuori da 12
Polline 11.30 fuori da 12
Qualità dell'aria Non disponibile.
Flu Activity Non disponibile.
METAR KEAR 022135Z AUTO 16011KT 10SM CLR 34/18 A2984 RMK AO1
Pressione 29.84 in
Visibilità 10.0 miglia
Nuvole Sereno
Indice di calore 94 °F
Punto di rugiada 66 °F
Umidità 43%
Piovosità 0.00 in
Spessore del manto nevoso Non disponibile.
Raggi UV 5 fuori da 12
Polline 11.30 fuori da 12
Qualità dell'aria Non disponibile.
Flu Activity Non disponibile.
METAR KEAR 022135Z AUTO 16011KT 10SM CLR 34/18 A2984 RMK AO1

10-Day Weather Forecast

×

Almanac

Astronomia

Sep. 02, 2015 Alba Tramonto
Ora attuale
Crepuscolo civile
Crepuscolo nautico
Crepuscolo astronomico
Luna
Estensione della luce visibile
Lunghezza del giorno
Tomorrow will be .
, % of the Moon is Illuminated

Gli estremi di oggi

State Highs State Lows

Community

WunderPhotos

Upload Photos

1,851,818 foto caricate!

WunderBlogs® & News

Nearby

Qualità dell'aria

  Qualità dell'aria Indice AQ Inquinante
Not available.

Profondità neve

Stazione Profondità Altitudine

Attività sismica

Città  Distanza Mag. Data & Ora
Minimo Magnitudo Mostrato è 2.5.

Temperature delle acque costiere

Località Temperatura

Stations

Stazioni meteo nelle vicinanze

Ubicazione della stazione Temp. Raffreddamento del vento Punto di rugiada Umidità Vento Precip. Alt. Aggiornato Tipo